sensor_id;sensor_type;location;lat;lon;timestamp;P1;durP1;ratioP1;P2;durP2;ratioP2
16998;SDS011;10211;49.476;11.010;2023-10-13T00:01:53;10.70;;;6.47;;
16998;SDS011;10211;49.476;11.010;2023-10-13T00:04:39;15.40;;;7.33;;
16998;SDS011;10211;49.476;11.010;2023-10-13T00:07:07;9.10;;;6.57;;
16998;SDS011;10211;49.476;11.010;2023-10-13T00:09:34;11.63;;;7.53;;
16998;SDS011;10211;49.476;11.010;2023-10-13T00:12:02;11.20;;;7.20;;
16998;SDS011;10211;49.476;11.010;2023-10-13T00:14:33;12.53;;;6.80;;
16998;SDS011;10211;49.476;11.010;2023-10-13T00:17:00;10.33;;;7.37;;
16998;SDS011;10211;49.476;11.010;2023-10-13T00:19:29;11.20;;;6.93;;
16998;SDS011;10211;49.476;11.010;2023-10-13T00:22:05;8.73;;;7.20;;
16998;SDS011;10211;49.476;11.010;2023-10-13T00:24:35;14.00;;;7.83;;
16998;SDS011;10211;49.476;11.010;2023-10-13T00:27:12;13.63;;;7.47;;
16998;SDS011;10211;49.476;11.010;2023-10-13T00:29:54;9.67;;;6.97;;
16998;SDS011;10211;49.476;11.010;2023-10-13T00:32:41;9.97;;;7.17;;
16998;SDS011;10211;49.476;11.010;2023-10-13T00:35:09;11.03;;;6.33;;
16998;SDS011;10211;49.476;11.010;2023-10-13T00:37:39;8.53;;;6.63;;
16998;SDS011;10211;49.476;11.010;2023-10-13T00:40:11;9.63;;;6.83;;
16998;SDS011;10211;49.476;11.010;2023-10-13T00:42:51;10.73;;;6.97;;
16998;SDS011;10211;49.476;11.010;2023-10-13T00:45:19;8.67;;;6.13;;
16998;SDS011;10211;49.476;11.010;2023-10-13T00:47:44;11.07;;;6.70;;
16998;SDS011;10211;49.476;11.010;2023-10-13T00:50:14;8.87;;;6.60;;
16998;SDS011;10211;49.476;11.010;2023-10-13T00:52:44;12.47;;;7.20;;
16998;SDS011;10211;49.476;11.010;2023-10-13T00:55:16;11.40;;;6.50;;
16998;SDS011;10211;49.476;11.010;2023-10-13T00:57:47;8.27;;;6.60;;
16998;SDS011;10211;49.476;11.010;2023-10-13T01:00:18;12.17;;;7.00;;
16998;SDS011;10211;49.476;11.010;2023-10-13T01:02:44;9.30;;;6.63;;
16998;SDS011;10211;49.476;11.010;2023-10-13T01:05:19;9.73;;;6.67;;
16998;SDS011;10211;49.476;11.010;2023-10-13T01:07:47;8.43;;;6.40;;
16998;SDS011;10211;49.476;11.010;2023-10-13T01:10:17;9.53;;;6.90;;
16998;SDS011;10211;49.476;11.010;2023-10-13T01:12:44;14.50;;;6.70;;
16998;SDS011;10211;49.476;11.010;2023-10-13T01:15:12;9.10;;;6.93;;
16998;SDS011;10211;49.476;11.010;2023-10-13T01:17:42;12.80;;;7.03;;
16998;SDS011;10211;49.476;11.010;2023-10-13T01:20:13;7.93;;;6.63;;
16998;SDS011;10211;49.476;11.010;2023-10-13T01:22:47;8.77;;;6.97;;
16998;SDS011;10211;49.476;11.010;2023-10-13T01:25:23;11.60;;;7.20;;
16998;SDS011;10211;49.476;11.010;2023-10-13T01:27:53;14.00;;;6.80;;
16998;SDS011;10211;49.476;11.010;2023-10-13T01:30:20;13.83;;;7.40;;
16998;SDS011;10211;49.476;11.010;2023-10-13T01:32:48;13.07;;;7.20;;
16998;SDS011;10211;49.476;11.010;2023-10-13T01:35:16;12.37;;;7.57;;
16998;SDS011;10211;49.476;11.010;2023-10-13T01:37:44;10.57;;;7.10;;
16998;SDS011;10211;49.476;11.010;2023-10-13T01:40:11;15.80;;;7.60;;
16998;SDS011;10211;49.476;11.010;2023-10-13T01:42:45;13.53;;;7.43;;
16998;SDS011;10211;49.476;11.010;2023-10-13T01:45:11;13.20;;;8.83;;
16998;SDS011;10211;49.476;11.010;2023-10-13T01:47:39;13.80;;;8.37;;
16998;SDS011;10211;49.476;11.010;2023-10-13T01:50:05;14.27;;;8.40;;
16998;SDS011;10211;49.476;11.010;2023-10-13T01:52:40;12.27;;;7.70;;
16998;SDS011;10211;49.476;11.010;2023-10-13T01:55:07;13.53;;;8.80;;
16998;SDS011;10211;49.476;11.010;2023-10-13T01:57:35;12.90;;;7.73;;
16998;SDS011;10211;49.476;11.010;2023-10-13T02:00:02;13.47;;;7.83;;
16998;SDS011;10211;49.476;11.010;2023-10-13T02:02:40;12.30;;;8.23;;
16998;SDS011;10211;49.476;11.010;2023-10-13T02:08:22;16.67;;;8.40;;
16998;SDS011;10211;49.476;11.010;2023-10-13T02:10:50;9.77;;;7.00;;
16998;SDS011;10211;49.476;11.010;2023-10-13T02:13:17;12.50;;;7.77;;
16998;SDS011;10211;49.476;11.010;2023-10-13T02:15:47;11.13;;;8.10;;
16998;SDS011;10211;49.476;11.010;2023-10-13T02:18:17;11.30;;;8.33;;
16998;SDS011;10211;49.476;11.010;2023-10-13T02:20:46;9.27;;;7.83;;
16998;SDS011;10211;49.476;11.010;2023-10-13T02:23:20;16.03;;;8.63;;
16998;SDS011;10211;49.476;11.010;2023-10-13T02:25:47;12.03;;;7.60;;
16998;SDS011;10211;49.476;11.010;2023-10-13T02:28:17;11.40;;;8.23;;
16998;SDS011;10211;49.476;11.010;2023-10-13T02:30:48;12.00;;;8.17;;
16998;SDS011;10211;49.476;11.010;2023-10-13T02:33:15;11.47;;;8.33;;
16998;SDS011;10211;49.476;11.010;2023-10-13T02:35:46;12.73;;;8.77;;
16998;SDS011;10211;49.476;11.010;2023-10-13T02:38:18;12.80;;;8.57;;
16998;SDS011;10211;49.476;11.010;2023-10-13T02:40:53;15.83;;;9.00;;
16998;SDS011;10211;49.476;11.010;2023-10-13T02:43:21;17.20;;;8.53;;
16998;SDS011;10211;49.476;11.010;2023-10-13T02:45:55;14.23;;;8.80;;
16998;SDS011;10211;49.476;11.010;2023-10-13T02:48:25;12.50;;;9.10;;
16998;SDS011;10211;49.476;11.010;2023-10-13T02:50:55;12.17;;;8.40;;
16998;SDS011;10211;49.476;11.010;2023-10-13T02:53:27;13.13;;;8.57;;
16998;SDS011;10211;49.476;11.010;2023-10-13T02:55:55;14.77;;;8.83;;
16998;SDS011;10211;49.476;11.010;2023-10-13T02:58:24;17.67;;;8.97;;
16998;SDS011;10211;49.476;11.010;2023-10-13T03:01:06;11.47;;;9.00;;
16998;SDS011;10211;49.476;11.010;2023-10-13T03:03:42;14.83;;;8.20;;
16998;SDS011;10211;49.476;11.010;2023-10-13T03:06:09;12.50;;;7.63;;
16998;SDS011;10211;49.476;11.010;2023-10-13T03:08:37;13.00;;;8.53;;
16998;SDS011;10211;49.476;11.010;2023-10-13T03:11:03;11.23;;;7.97;;
16998;SDS011;10211;49.476;11.010;2023-10-13T03:13:31;14.93;;;8.23;;
16998;SDS011;10211;49.476;11.010;2023-10-13T03:15:58;13.43;;;8.40;;
16998;SDS011;10211;49.476;11.010;2023-10-13T03:18:25;9.93;;;7.07;;
16998;SDS011;10211;49.476;11.010;2023-10-13T03:20:58;13.37;;;8.30;;
16998;SDS011;10211;49.476;11.010;2023-10-13T03:23:27;12.63;;;7.60;;
16998;SDS011;10211;49.476;11.010;2023-10-13T03:26:08;12.20;;;8.03;;
16998;SDS011;10211;49.476;11.010;2023-10-13T03:28:34;10.63;;;7.60;;
16998;SDS011;10211;49.476;11.010;2023-10-13T03:31:03;13.43;;;7.67;;
16998;SDS011;10211;49.476;11.010;2023-10-13T03:33:34;14.13;;;8.20;;
16998;SDS011;10211;49.476;11.010;2023-10-13T03:36:03;11.43;;;7.83;;
16998;SDS011;10211;49.476;11.010;2023-10-13T03:38:32;10.97;;;8.23;;
16998;SDS011;10211;49.476;11.010;2023-10-13T03:41:01;11.93;;;8.00;;
16998;SDS011;10211;49.476;11.010;2023-10-13T03:43:45;12.63;;;7.37;;
16998;SDS011;10211;49.476;11.010;2023-10-13T03:46:17;12.83;;;7.60;;
16998;SDS011;10211;49.476;11.010;2023-10-13T03:48:48;9.97;;;8.20;;
16998;SDS011;10211;49.476;11.010;2023-10-13T03:51:24;14.43;;;8.57;;
16998;SDS011;10211;49.476;11.010;2023-10-13T03:53:56;11.50;;;8.37;;
16998;SDS011;10211;49.476;11.010;2023-10-13T03:56:23;9.70;;;7.37;;
16998;SDS011;10211;49.476;11.010;2023-10-13T03:59:04;14.00;;;8.50;;
16998;SDS011;10211;49.476;11.010;2023-10-13T04:01:34;14.37;;;8.43;;
16998;SDS011;10211;49.476;11.010;2023-10-13T04:04:12;10.53;;;7.60;;
16998;SDS011;10211;49.476;11.010;2023-10-13T04:06:40;14.43;;;8.27;;
16998;SDS011;10211;49.476;11.010;2023-10-13T04:09:24;11.47;;;7.30;;
16998;SDS011;10211;49.476;11.010;2023-10-13T04:12:08;12.60;;;8.33;;
16998;SDS011;10211;49.476;11.010;2023-10-13T04:15:07;10.93;;;7.83;;
16998;SDS011;10211;49.476;11.010;2023-10-13T04:17:43;12.97;;;8.00;;
16998;SDS011;10211;49.476;11.010;2023-10-13T04:20:12;11.17;;;8.17;;
16998;SDS011;10211;49.476;11.010;2023-10-13T04:22:51;12.23;;;8.60;;
16998;SDS011;10211;49.476;11.010;2023-10-13T04:25:34;13.07;;;7.93;;
16998;SDS011;10211;49.476;11.010;2023-10-13T04:28:17;11.30;;;8.57;;
16998;SDS011;10211;49.476;11.010;2023-10-13T04:30:59;11.27;;;8.43;;
16998;SDS011;10211;49.476;11.010;2023-10-13T04:33:36;9.70;;;8.27;;
16998;SDS011;10211;49.476;11.010;2023-10-13T04:36:15;14.23;;;8.80;;
16998;SDS011;10211;49.476;11.010;2023-10-13T04:38:47;18.73;;;8.93;;
16998;SDS011;10211;49.476;11.010;2023-10-13T04:41:25;11.57;;;8.57;;
16998;SDS011;10211;49.476;11.010;2023-10-13T04:43:57;14.63;;;9.17;;
16998;SDS011;10211;49.476;11.010;2023-10-13T04:46:48;16.43;;;9.03;;
16998;SDS011;10211;49.476;11.010;2023-10-13T04:49:33;15.57;;;9.17;;
16998;SDS011;10211;49.476;11.010;2023-10-13T04:52:16;20.70;;;9.47;;
16998;SDS011;10211;49.476;11.010;2023-10-13T04:54:57;12.93;;;8.30;;
16998;SDS011;10211;49.476;11.010;2023-10-13T04:57:35;19.20;;;9.70;;
16998;SDS011;10211;49.476;11.010;2023-10-13T05:00:12;12.00;;;8.27;;
16998;SDS011;10211;49.476;11.010;2023-10-13T05:02:57;12.87;;;8.83;;
16998;SDS011;10211;49.476;11.010;2023-10-13T05:05:43;16.07;;;8.43;;
16998;SDS011;10211;49.476;11.010;2023-10-13T05:08:33;13.97;;;8.60;;
16998;SDS011;10211;49.476;11.010;2023-10-13T05:11:17;13.50;;;9.60;;
16998;SDS011;10211;49.476;11.010;2023-10-13T05:14:02;15.43;;;9.37;;
16998;SDS011;10211;49.476;11.010;2023-10-13T05:16:46;13.87;;;8.77;;
16998;SDS011;10211;49.476;11.010;2023-10-13T05:19:31;12.57;;;8.13;;
16998;SDS011;10211;49.476;11.010;2023-10-13T05:22:15;14.63;;;8.97;;
16998;SDS011;10211;49.476;11.010;2023-10-13T05:25:01;12.60;;;10.67;;
16998;SDS011;10211;49.476;11.010;2023-10-13T05:27:45;12.70;;;10.30;;
16998;SDS011;10211;49.476;11.010;2023-10-13T05:30:29;14.77;;;8.90;;
16998;SDS011;10211;49.476;11.010;2023-10-13T05:33:10;12.23;;;8.77;;
16998;SDS011;10211;49.476;11.010;2023-10-13T05:35:54;11.63;;;7.60;;
16998;SDS011;10211;49.476;11.010;2023-10-13T05:38:38;10.67;;;7.70;;
16998;SDS011;10211;49.476;11.010;2023-10-13T05:41:23;9.17;;;6.93;;
16998;SDS011;10211;49.476;11.010;2023-10-13T05:44:08;13.70;;;7.30;;
16998;SDS011;10211;49.476;11.010;2023-10-13T05:46:52;9.47;;;7.37;;
16998;SDS011;10211;49.476;11.010;2023-10-13T05:49:58;12.97;;;7.40;;
16998;SDS011;10211;49.476;11.010;2023-10-13T05:52:30;12.30;;;7.30;;
16998;SDS011;10211;49.476;11.010;2023-10-13T05:55:15;17.37;;;8.30;;
16998;SDS011;10211;49.476;11.010;2023-10-13T05:58:00;9.10;;;7.43;;
16998;SDS011;10211;49.476;11.010;2023-10-13T06:00:44;13.73;;;7.73;;
16998;SDS011;10211;49.476;11.010;2023-10-13T06:03:43;11.07;;;7.83;;
16998;SDS011;10211;49.476;11.010;2023-10-13T06:06:28;10.67;;;7.17;;
16998;SDS011;10211;49.476;11.010;2023-10-13T06:09:12;13.83;;;7.37;;
16998;SDS011;10211;49.476;11.010;2023-10-13T06:11:57;8.77;;;6.97;;
16998;SDS011;10211;49.476;11.010;2023-10-13T06:14:46;16.33;;;8.40;;
16998;SDS011;10211;49.476;11.010;2023-10-13T06:17:30;11.13;;;6.97;;
16998;SDS011;10211;49.476;11.010;2023-10-13T06:20:14;10.20;;;7.40;;
16998;SDS011;10211;49.476;11.010;2023-10-13T06:23:00;11.77;;;6.83;;
16998;SDS011;10211;49.476;11.010;2023-10-13T06:25:49;8.83;;;6.57;;
16998;SDS011;10211;49.476;11.010;2023-10-13T06:28:34;10.70;;;7.03;;
16998;SDS011;10211;49.476;11.010;2023-10-13T06:31:09;14.70;;;7.63;;
16998;SDS011;10211;49.476;11.010;2023-10-13T06:33:40;10.70;;;7.10;;
16998;SDS011;10211;49.476;11.010;2023-10-13T06:36:10;10.90;;;5.93;;
16998;SDS011;10211;49.476;11.010;2023-10-13T06:38:37;9.47;;;5.90;;
16998;SDS011;10211;49.476;11.010;2023-10-13T06:41:05;11.53;;;6.83;;
16998;SDS011;10211;49.476;11.010;2023-10-13T06:43:33;14.10;;;6.40;;
16998;SDS011;10211;49.476;11.010;2023-10-13T06:46:04;8.27;;;6.27;;
16998;SDS011;10211;49.476;11.010;2023-10-13T06:48:33;10.10;;;6.30;;
16998;SDS011;10211;49.476;11.010;2023-10-13T06:51:00;7.90;;;6.17;;
16998;SDS011;10211;49.476;11.010;2023-10-13T06:53:39;8.53;;;6.33;;
16998;SDS011;10211;49.476;11.010;2023-10-13T06:59:08;6.77;;;5.77;;
16998;SDS011;10211;49.476;11.010;2023-10-13T07:01:36;7.47;;;6.03;;
16998;SDS011;10211;49.476;11.010;2023-10-13T07:04:07;8.40;;;6.20;;
16998;SDS011;10211;49.476;11.010;2023-10-13T07:06:39;6.50;;;5.77;;
16998;SDS011;10211;49.476;11.010;2023-10-13T07:09:13;8.70;;;5.73;;
16998;SDS011;10211;49.476;11.010;2023-10-13T07:12:01;8.67;;;5.63;;
16998;SDS011;10211;49.476;11.010;2023-10-13T07:14:31;6.13;;;5.33;;
16998;SDS011;10211;49.476;11.010;2023-10-13T07:16:59;11.83;;;6.37;;
16998;SDS011;10211;49.476;11.010;2023-10-13T07:19:29;13.30;;;6.40;;
16998;SDS011;10211;49.476;11.010;2023-10-13T07:21:56;4.97;;;4.40;;
16998;SDS011;10211;49.476;11.010;2023-10-13T07:24:25;6.13;;;4.87;;
16998;SDS011;10211;49.476;11.010;2023-10-13T07:26:56;5.23;;;4.60;;
16998;SDS011;10211;49.476;11.010;2023-10-13T07:29:28;7.77;;;5.33;;
16998;SDS011;10211;49.476;11.010;2023-10-13T07:31:55;9.50;;;4.70;;
16998;SDS011;10211;49.476;11.010;2023-10-13T07:34:23;6.20;;;4.83;;
16998;SDS011;10211;49.476;11.010;2023-10-13T07:36:53;7.47;;;4.37;;
16998;SDS011;10211;49.476;11.010;2023-10-13T07:39:24;6.87;;;4.20;;
16998;SDS011;10211;49.476;11.010;2023-10-13T07:41:51;4.77;;;4.23;;
16998;SDS011;10211;49.476;11.010;2023-10-13T07:44:28;7.63;;;4.20;;
16998;SDS011;10211;49.476;11.010;2023-10-13T07:46:58;12.40;;;4.40;;
16998;SDS011;10211;49.476;11.010;2023-10-13T07:49:28;8.17;;;4.83;;
16998;SDS011;10211;49.476;11.010;2023-10-13T07:52:03;8.93;;;4.37;;
16998;SDS011;10211;49.476;11.010;2023-10-13T07:54:49;11.00;;;4.20;;
16998;SDS011;10211;49.476;11.010;2023-10-13T07:57:25;9.93;;;4.80;;
16998;SDS011;10211;49.476;11.010;2023-10-13T07:59:54;12.07;;;4.67;;
16998;SDS011;10211;49.476;11.010;2023-10-13T08:02:31;7.70;;;4.97;;
16998;SDS011;10211;49.476;11.010;2023-10-13T08:05:13;7.00;;;4.50;;
16998;SDS011;10211;49.476;11.010;2023-10-13T08:07:50;7.83;;;4.47;;
16998;SDS011;10211;49.476;11.010;2023-10-13T08:10:18;4.87;;;4.40;;
16998;SDS011;10211;49.476;11.010;2023-10-13T08:12:50;9.00;;;5.13;;
16998;SDS011;10211;49.476;11.010;2023-10-13T08:15:17;6.07;;;4.23;;
16998;SDS011;10211;49.476;11.010;2023-10-13T08:17:56;5.63;;;3.93;;
16998;SDS011;10211;49.476;11.010;2023-10-13T08:20:28;5.37;;;3.67;;
16998;SDS011;10211;49.476;11.010;2023-10-13T08:22:57;10.23;;;4.43;;
16998;SDS011;10211;49.476;11.010;2023-10-13T08:25:38;4.80;;;3.57;;
16998;SDS011;10211;49.476;11.010;2023-10-13T08:28:19;9.60;;;4.53;;
16998;SDS011;10211;49.476;11.010;2023-10-13T08:31:03;6.57;;;3.70;;
16998;SDS011;10211;49.476;11.010;2023-10-13T08:33:39;7.90;;;4.50;;
16998;SDS011;10211;49.476;11.010;2023-10-13T08:36:11;7.00;;;4.43;;
16998;SDS011;10211;49.476;11.010;2023-10-13T08:38:54;6.30;;;3.80;;
16998;SDS011;10211;49.476;11.010;2023-10-13T08:41:21;9.33;;;4.60;;
16998;SDS011;10211;49.476;11.010;2023-10-13T08:43:54;5.87;;;4.50;;
16998;SDS011;10211;49.476;11.010;2023-10-13T08:46:30;7.20;;;4.00;;
16998;SDS011;10211;49.476;11.010;2023-10-13T08:49:16;6.17;;;4.60;;
16998;SDS011;10211;49.476;11.010;2023-10-13T08:51:48;7.17;;;4.63;;
16998;SDS011;10211;49.476;11.010;2023-10-13T08:54:31;5.73;;;4.20;;
16998;SDS011;10211;49.476;11.010;2023-10-13T08:57:10;9.33;;;4.03;;
16998;SDS011;10211;49.476;11.010;2023-10-13T08:59:55;5.20;;;4.20;;
16998;SDS011;10211;49.476;11.010;2023-10-13T09:02:42;7.20;;;4.13;;
16998;SDS011;10211;49.476;11.010;2023-10-13T09:05:25;6.27;;;4.47;;
16998;SDS011;10211;49.476;11.010;2023-10-13T09:08:07;7.93;;;4.23;;
16998;SDS011;10211;49.476;11.010;2023-10-13T09:10:36;7.67;;;3.70;;
16998;SDS011;10211;49.476;11.010;2023-10-13T09:13:09;7.17;;;4.10;;
16998;SDS011;10211;49.476;11.010;2023-10-13T09:15:45;10.10;;;4.70;;
16998;SDS011;10211;49.476;11.010;2023-10-13T09:18:26;6.77;;;3.77;;
16998;SDS011;10211;49.476;11.010;2023-10-13T09:21:11;9.63;;;4.20;;
16998;SDS011;10211;49.476;11.010;2023-10-13T09:23:56;4.33;;;3.90;;
16998;SDS011;10211;49.476;11.010;2023-10-13T09:26:38;4.33;;;3.77;;
16998;SDS011;10211;49.476;11.010;2023-10-13T09:29:13;11.63;;;4.27;;
16998;SDS011;10211;49.476;11.010;2023-10-13T09:31:43;6.67;;;3.93;;
16998;SDS011;10211;49.476;11.010;2023-10-13T09:34:10;9.00;;;4.27;;
16998;SDS011;10211;49.476;11.010;2023-10-13T09:36:36;6.80;;;3.87;;
16998;SDS011;10211;49.476;11.010;2023-10-13T09:39:03;8.33;;;4.23;;
16998;SDS011;10211;49.476;11.010;2023-10-13T09:41:40;7.57;;;3.83;;
16998;SDS011;10211;49.476;11.010;2023-10-13T09:44:06;12.38;;;3.92;;
16998;SDS011;10211;49.476;11.010;2023-10-13T09:46:33;9.18;;;3.80;;
16998;SDS011;10211;49.476;11.010;2023-10-13T09:49:09;4.37;;;3.27;;
16998;SDS011;10211;49.476;11.010;2023-10-13T09:51:47;5.72;;;2.97;;
16998;SDS011;10211;49.476;11.010;2023-10-13T09:54:17;10.10;;;4.80;;
16998;SDS011;10211;49.476;11.010;2023-10-13T09:56:53;7.90;;;4.27;;
16998;SDS011;10211;49.476;11.010;2023-10-13T09:59:22;6.13;;;3.70;;
16998;SDS011;10211;49.476;11.010;2023-10-13T10:01:59;3.92;;;3.40;;
16998;SDS011;10211;49.476;11.010;2023-10-13T10:04:33;13.18;;;4.25;;
16998;SDS011;10211;49.476;11.010;2023-10-13T10:07:06;5.68;;;3.65;;
16998;SDS011;10211;49.476;11.010;2023-10-13T10:09:33;7.28;;;3.50;;
16998;SDS011;10211;49.476;11.010;2023-10-13T10:12:16;7.80;;;3.40;;
16998;SDS011;10211;49.476;11.010;2023-10-13T10:15:11;5.75;;;3.20;;
16998;SDS011;10211;49.476;11.010;2023-10-13T10:17:53;6.25;;;3.13;;
16998;SDS011;10211;49.476;11.010;2023-10-13T10:20:27;6.03;;;2.88;;
16998;SDS011;10211;49.476;11.010;2023-10-13T10:23:05;7.88;;;3.47;;
16998;SDS011;10211;49.476;11.010;2023-10-13T10:25:35;7.20;;;3.42;;
16998;SDS011;10211;49.476;11.010;2023-10-13T10:28:04;4.63;;;2.90;;
16998;SDS011;10211;49.476;11.010;2023-10-13T10:30:33;5.63;;;3.55;;
16998;SDS011;10211;49.476;11.010;2023-10-13T10:33:03;5.88;;;2.97;;
16998;SDS011;10211;49.476;11.010;2023-10-13T10:35:37;4.10;;;3.35;;
16998;SDS011;10211;49.476;11.010;2023-10-13T10:38:07;6.22;;;3.30;;
16998;SDS011;10211;49.476;11.010;2023-10-13T10:40:50;6.63;;;3.42;;
16998;SDS011;10211;49.476;11.010;2023-10-13T10:43:23;5.90;;;2.67;;
16998;SDS011;10211;49.476;11.010;2023-10-13T10:45:53;5.40;;;3.08;;
16998;SDS011;10211;49.476;11.010;2023-10-13T10:48:24;5.22;;;2.80;;
16998;SDS011;10211;49.476;11.010;2023-10-13T10:50:56;5.50;;;2.95;;
16998;SDS011;10211;49.476;11.010;2023-10-13T10:53:31;5.55;;;2.92;;
16998;SDS011;10211;49.476;11.010;2023-10-13T10:56:05;3.55;;;3.05;;
16998;SDS011;10211;49.476;11.010;2023-10-13T10:58:46;4.10;;;3.05;;
16998;SDS011;10211;49.476;11.010;2023-10-13T11:01:13;5.22;;;3.92;;
16998;SDS011;10211;49.476;11.010;2023-10-13T11:03:52;5.20;;;3.13;;
16998;SDS011;10211;49.476;11.010;2023-10-13T11:06:22;5.07;;;3.50;;
16998;SDS011;10211;49.476;11.010;2023-10-13T11:09:00;4.70;;;3.20;;
16998;SDS011;10211;49.476;11.010;2023-10-13T11:11:29;5.28;;;3.20;;
16998;SDS011;10211;49.476;11.010;2023-10-13T11:14:01;8.07;;;3.88;;
16998;SDS011;10211;49.476;11.010;2023-10-13T11:16:48;4.65;;;3.40;;
16998;SDS011;10211;49.476;11.010;2023-10-13T11:19:18;5.18;;;3.17;;
16998;SDS011;10211;49.476;11.010;2023-10-13T11:21:50;3.00;;;2.67;;
16998;SDS011;10211;49.476;11.010;2023-10-13T11:24:20;3.30;;;2.97;;
16998;SDS011;10211;49.476;11.010;2023-10-13T11:26:47;4.50;;;3.00;;
16998;SDS011;10211;49.476;11.010;2023-10-13T11:29:32;6.05;;;3.00;;
16998;SDS011;10211;49.476;11.010;2023-10-13T11:32:00;5.78;;;3.30;;
16998;SDS011;10211;49.476;11.010;2023-10-13T11:34:28;8.32;;;3.38;;
16998;SDS011;10211;49.476;11.010;2023-10-13T11:37:04;9.88;;;3.47;;
16998;SDS011;10211;49.476;11.010;2023-10-13T11:39:52;4.47;;;2.80;;
16998;SDS011;10211;49.476;11.010;2023-10-13T11:42:20;7.28;;;3.28;;
16998;SDS011;10211;49.476;11.010;2023-10-13T11:44:48;3.75;;;2.47;;
16998;SDS011;10211;49.476;11.010;2023-10-13T11:47:34;7.57;;;3.08;;
16998;SDS011;10211;49.476;11.010;2023-10-13T11:50:12;3.90;;;2.85;;
16998;SDS011;10211;49.476;11.010;2023-10-13T11:52:51;3.85;;;2.53;;
16998;SDS011;10211;49.476;11.010;2023-10-13T11:55:18;4.13;;;2.50;;
16998;SDS011;10211;49.476;11.010;2023-10-13T11:57:45;6.10;;;3.42;;
16998;SDS011;10211;49.476;11.010;2023-10-13T12:00:14;8.13;;;3.28;;
16998;SDS011;10211;49.476;11.010;2023-10-13T12:02:51;4.65;;;2.47;;
16998;SDS011;10211;49.476;11.010;2023-10-13T12:05:35;5.10;;;2.90;;
16998;SDS011;10211;49.476;11.010;2023-10-13T12:08:31;6.63;;;2.50;;
16998;SDS011;10211;49.476;11.010;2023-10-13T12:11:03;9.20;;;2.75;;
16998;SDS011;10211;49.476;11.010;2023-10-13T12:13:50;10.18;;;3.78;;
16998;SDS011;10211;49.476;11.010;2023-10-13T12:16:18;5.13;;;2.58;;
16998;SDS011;10211;49.476;11.010;2023-10-13T12:18:45;4.28;;;2.75;;
16998;SDS011;10211;49.476;11.010;2023-10-13T12:21:18;7.45;;;2.88;;
16998;SDS011;10211;49.476;11.010;2023-10-13T12:23:46;4.43;;;2.83;;
16998;SDS011;10211;49.476;11.010;2023-10-13T12:26:13;6.35;;;2.70;;
16998;SDS011;10211;49.476;11.010;2023-10-13T12:28:45;4.60;;;2.75;;
16998;SDS011;10211;49.476;11.010;2023-10-13T12:31:16;6.47;;;2.78;;
16998;SDS011;10211;49.476;11.010;2023-10-13T12:33:51;6.40;;;2.47;;
16998;SDS011;10211;49.476;11.010;2023-10-13T12:36:18;5.32;;;2.75;;
16998;SDS011;10211;49.476;11.010;2023-10-13T12:38:56;3.97;;;2.42;;
16998;SDS011;10211;49.476;11.010;2023-10-13T12:41:40;4.78;;;2.63;;
16998;SDS011;10211;49.476;11.010;2023-10-13T12:44:24;3.60;;;3.08;;
16998;SDS011;10211;49.476;11.010;2023-10-13T12:47:10;5.38;;;3.05;;
16998;SDS011;10211;49.476;11.010;2023-10-13T12:49:54;3.85;;;2.67;;
16998;SDS011;10211;49.476;11.010;2023-10-13T12:52:30;4.75;;;2.65;;
16998;SDS011;10211;49.476;11.010;2023-10-13T12:54:57;3.67;;;2.28;;
16998;SDS011;10211;49.476;11.010;2023-10-13T12:57:31;4.55;;;2.88;;
16998;SDS011;10211;49.476;11.010;2023-10-13T12:59:58;4.80;;;2.47;;
16998;SDS011;10211;49.476;11.010;2023-10-13T13:02:27;3.97;;;2.15;;
16998;SDS011;10211;49.476;11.010;2023-10-13T13:04:55;4.50;;;2.55;;
16998;SDS011;10211;49.476;11.010;2023-10-13T13:07:30;6.65;;;3.08;;
16998;SDS011;10211;49.476;11.010;2023-10-13T13:10:08;5.28;;;2.78;;
16998;SDS011;10211;49.476;11.010;2023-10-13T13:12:36;9.18;;;3.60;;
16998;SDS011;10211;49.476;11.010;2023-10-13T13:15:03;6.95;;;2.75;;
16998;SDS011;10211;49.476;11.010;2023-10-13T13:17:35;3.65;;;2.60;;
16998;SDS011;10211;49.476;11.010;2023-10-13T13:20:04;5.93;;;2.30;;
16998;SDS011;10211;49.476;11.010;2023-10-13T13:22:36;3.25;;;2.67;;
16998;SDS011;10211;49.476;11.010;2023-10-13T13:25:03;2.85;;;2.40;;
16998;SDS011;10211;49.476;11.010;2023-10-13T13:27:33;5.35;;;2.70;;
16998;SDS011;10211;49.476;11.010;2023-10-13T13:30:01;5.38;;;2.60;;
16998;SDS011;10211;49.476;11.010;2023-10-13T13:32:38;7.07;;;2.28;;
16998;SDS011;10211;49.476;11.010;2023-10-13T13:35:06;4.40;;;3.17;;
16998;SDS011;10211;49.476;11.010;2023-10-13T13:37:38;3.70;;;2.33;;
16998;SDS011;10211;49.476;11.010;2023-10-13T13:40:08;6.35;;;2.20;;
16998;SDS011;10211;49.476;11.010;2023-10-13T13:42:41;4.00;;;2.47;;
16998;SDS011;10211;49.476;11.010;2023-10-13T13:45:12;3.85;;;2.47;;
16998;SDS011;10211;49.476;11.010;2023-10-13T13:47:47;3.92;;;2.55;;
16998;SDS011;10211;49.476;11.010;2023-10-13T13:50:18;6.55;;;3.00;;
16998;SDS011;10211;49.476;11.010;2023-10-13T13:52:49;7.68;;;2.60;;
16998;SDS011;10211;49.476;11.010;2023-10-13T13:55:18;6.20;;;2.83;;
16998;SDS011;10211;49.476;11.010;2023-10-13T13:57:45;4.70;;;2.70;;
16998;SDS011;10211;49.476;11.010;2023-10-13T14:00:15;5.32;;;2.35;;
16998;SDS011;10211;49.476;11.010;2023-10-13T14:02:48;5.00;;;2.50;;
16998;SDS011;10211;49.476;11.010;2023-10-13T14:05:15;7.25;;;3.05;;
16998;SDS011;10211;49.476;11.010;2023-10-13T14:07:42;5.60;;;3.05;;
16998;SDS011;10211;49.476;11.010;2023-10-13T14:10:13;4.47;;;2.30;;
16998;SDS011;10211;49.476;11.010;2023-10-13T14:12:56;5.20;;;2.13;;
16998;SDS011;10211;49.476;11.010;2023-10-13T14:15:31;3.20;;;2.15;;
16998;SDS011;10211;49.476;11.010;2023-10-13T14:18:06;6.88;;;2.40;;
16998;SDS011;10211;49.476;11.010;2023-10-13T14:20:37;7.70;;;2.90;;
16998;SDS011;10211;49.476;11.010;2023-10-13T14:23:05;5.88;;;3.05;;
16998;SDS011;10211;49.476;11.010;2023-10-13T14:25:34;6.60;;;2.65;;
16998;SDS011;10211;49.476;11.010;2023-10-13T14:28:02;7.90;;;3.30;;
16998;SDS011;10211;49.476;11.010;2023-10-13T14:30:30;5.45;;;2.90;;
16998;SDS011;10211;49.476;11.010;2023-10-13T14:32:57;5.03;;;2.10;;
16998;SDS011;10211;49.476;11.010;2023-10-13T14:35:25;3.78;;;1.92;;
16998;SDS011;10211;49.476;11.010;2023-10-13T14:37:52;3.70;;;2.10;;
16998;SDS011;10211;49.476;11.010;2023-10-13T14:40:19;8.20;;;2.85;;
16998;SDS011;10211;49.476;11.010;2023-10-13T14:42:47;7.80;;;2.35;;
16998;SDS011;10211;49.476;11.010;2023-10-13T14:45:14;3.35;;;2.20;;
16998;SDS011;10211;49.476;11.010;2023-10-13T14:47:41;6.95;;;2.58;;
16998;SDS011;10211;49.476;11.010;2023-10-13T14:50:09;3.08;;;2.28;;
16998;SDS011;10211;49.476;11.010;2023-10-13T14:52:43;4.43;;;2.30;;
16998;SDS011;10211;49.476;11.010;2023-10-13T14:55:10;8.25;;;3.17;;
16998;SDS011;10211;49.476;11.010;2023-10-13T14:57:44;6.88;;;2.65;;
16998;SDS011;10211;49.476;11.010;2023-10-13T15:00:14;6.20;;;3.40;;
16998;SDS011;10211;49.476;11.010;2023-10-13T15:02:49;4.03;;;2.60;;
16998;SDS011;10211;49.476;11.010;2023-10-13T15:05:16;5.00;;;2.20;;
16998;SDS011;10211;49.476;11.010;2023-10-13T15:07:45;7.72;;;2.58;;
16998;SDS011;10211;49.476;11.010;2023-10-13T15:10:12;3.13;;;2.10;;
16998;SDS011;10211;49.476;11.010;2023-10-13T15:12:40;4.75;;;2.70;;
16998;SDS011;10211;49.476;11.010;2023-10-13T15:15:09;4.57;;;2.20;;